Terminal Aerodrome Forecast
Issued by NWS Des Moines, IA

Home | Current Version | Previous Version | Text Only | Print | Product List | Glossary On
Versions: 1 2 3 4 5 6 7 8 9 10 11 12 13 14 15 16 17 18 19 20 21 22 23 24 25 26
000
FTUS43 KDMX 220520
TAFALO
TAF
KALO 220520Z 2206/2306 20008KT 6SM BR SCT040 SCT110
     FM220800 22004KT 5SM BR SCT008 BKN120
      TEMPO 2211/2213 2SM BR SCT008 BKN030
     FM221400 25006KT P6SM SCT035 BKN080
     FM221900 07005KT P6SM SCT025 BKN080=

USA.gov is the U.S. government's official web portal to all federal, state and local government web resources and services.